createdAt,value
2022-10-18T00:01:24.365Z,102433.94
2022-10-18T00:03:51.934Z,102440.03
2022-10-18T00:06:19.305Z,102439.06
2022-10-18T00:08:48.744Z,102432.84
2022-10-18T00:11:16.031Z,102431.91
2022-10-18T00:13:43.287Z,102438.19
2022-10-18T00:16:26.361Z,102443.56
2022-10-18T00:27:09.157Z,102432.28
2022-10-18T00:52:54.349Z,102402.63
2022-10-18T01:06:11.535Z,102409.38
2022-10-18T01:08:55.746Z,102402.31
2022-10-18T01:11:36.312Z,102396.94
2022-10-18T01:14:26.141Z,102394.34
2022-10-18T01:17:01.480Z,102382.69
2022-10-18T01:19:59.614Z,102391.53
2022-10-18T01:22:48.575Z,102379.00
2022-10-18T01:25:36.706Z,102392.44
2022-10-18T01:28:37.101Z,102386.94
2022-10-18T01:31:13.633Z,102394.97
2022-10-18T01:33:46.543Z,102387.81
2022-10-18T01:36:32.853Z,102381.50
2022-10-18T01:39:06.238Z,102385.84
2022-10-18T01:41:36.891Z,102376.84
2022-10-18T01:44:06.759Z,102387.22
2022-10-18T01:46:34.866Z,102388.16
2022-10-18T01:49:02.116Z,102382.00
2022-10-18T01:51:30.968Z,102385.66
2022-10-18T01:53:58.479Z,102375.97
2022-10-18T01:56:35.543Z,102373.38
2022-10-18T01:59:05.780Z,102373.44
2022-10-18T02:02:05.586Z,102371.72
2022-10-18T02:04:59.137Z,102371.78
2022-10-18T02:07:55.322Z,102387.03
2022-10-18T02:10:45.875Z,102375.66
2022-10-18T02:13:16.539Z,102365.16
2022-10-18T02:15:47.563Z,102364.41
2022-10-18T02:18:28.291Z,102367.22
2022-10-18T02:20:56.695Z,102363.69
2022-10-18T02:23:24.932Z,102369.06
2022-10-18T02:25:52.870Z,102361.25
2022-10-18T02:28:20.798Z,102363.97
2022-10-18T02:30:59.441Z,102358.72
2022-10-18T02:33:35.913Z,102356.91
2022-10-18T02:36:07.720Z,102364.88
2022-10-18T02:59:22.030Z,102360.91
2022-10-18T03:09:17.142Z,102377.84
2022-10-18T03:15:03.714Z,102369.72
2022-10-18T03:22:22.464Z,102365.09
2022-10-18T03:26:02.083Z,102362.44
2022-10-18T03:50:04.666Z,102338.38
2022-10-18T03:53:49.766Z,102334.09
2022-10-18T04:00:05.054Z,102333.38
2022-10-18T04:02:32.584Z,102328.03
2022-10-18T04:05:00.208Z,102329.78
2022-10-18T04:07:28.113Z,102313.00
2022-10-18T04:09:58.612Z,102319.22
2022-10-18T04:12:26.097Z,102323.63
2022-10-18T04:14:55.567Z,102320.03
2022-10-18T04:17:25.720Z,102322.63
2022-10-18T04:19:53.180Z,102313.69
2022-10-18T04:22:20.423Z,102314.34
2022-10-18T04:24:47.647Z,102299.03
2022-10-18T04:27:15.106Z,102300.56
2022-10-18T04:29:42.288Z,102306.41
2022-10-18T04:32:09.576Z,102312.84
2022-10-18T04:34:37.814Z,102314.44
2022-10-18T04:37:05.248Z,102312.47
2022-10-18T04:39:32.649Z,102310.94
2022-10-18T04:41:59.855Z,102318.34
2022-10-18T04:44:27.059Z,102316.13
2022-10-18T04:46:54.584Z,102314.50
2022-10-18T04:49:21.802Z,102314.50
2022-10-18T04:51:49.116Z,102315.63
2022-10-18T04:54:16.347Z,102319.56
2022-10-18T05:08:56.300Z,102323.34
2022-10-18T05:11:23.473Z,102322.16
2022-10-18T05:13:54.599Z,102324.66
2022-10-18T05:16:22.408Z,102323.56
2022-10-18T05:18:54.684Z,102324.19
2022-10-18T05:21:25.238Z,102326.38
2022-10-18T05:23:56.821Z,102330.59
2022-10-18T05:26:24.523Z,102330.97
2022-10-18T05:28:52.010Z,102342.97
2022-10-18T05:31:19.850Z,102334.50
2022-10-18T05:33:54.078Z,102345.59
2022-10-18T05:36:26.329Z,102339.75
2022-10-18T05:38:54.581Z,102344.63
2022-10-18T05:41:22.712Z,102334.34
2022-10-18T05:43:50.035Z,102338.31
2022-10-18T05:46:20.260Z,102334.25
2022-10-18T05:48:52.078Z,102345.41
2022-10-18T05:51:20.609Z,102335.09
2022-10-18T05:53:48.020Z,102339.09
2022-10-18T05:56:15.516Z,102338.69
2022-10-18T05:58:43.430Z,102346.31
2022-10-18T06:01:11.804Z,102345.97
2022-10-18T06:03:39.997Z,102335.59
2022-10-18T06:06:11.190Z,102346.78
2022-10-18T06:08:39.703Z,102346.50
2022-10-18T06:11:15.385Z,102346.00
2022-10-18T06:13:44.788Z,102344.03
2022-10-18T06:16:12.973Z,102334.69
2022-10-18T06:18:41.951Z,102333.38
2022-10-18T06:21:14.872Z,102346.41
2022-10-18T06:23:42.723Z,102353.91
2022-10-18T06:26:12.944Z,102344.25
2022-10-18T06:28:42.465Z,102349.09
2022-10-18T06:31:11.314Z,102344.28
2022-10-18T06:33:47.277Z,102345.47
2022-10-18T06:36:16.847Z,102331.56
2022-10-18T06:38:44.750Z,102329.25
2022-10-18T06:41:12.365Z,102338.25
2022-10-18T06:43:40.303Z,102349.38
2022-10-18T06:46:13.707Z,102341.50
2022-10-18T06:48:41.146Z,102329.94
2022-10-18T06:51:10.159Z,102334.56
2022-10-18T07:06:13.425Z,102312.94
2022-10-18T07:08:41.082Z,102315.00
2022-10-18T07:11:09.907Z,102309.75
2022-10-18T07:13:37.352Z,102302.84
2022-10-18T07:16:10.686Z,102302.19
2022-10-18T07:18:42.964Z,102294.50
2022-10-18T07:21:12.880Z,102293.25
2022-10-18T07:23:43.568Z,102289.09
2022-10-18T07:26:17.565Z,102285.94
2022-10-18T07:28:46.889Z,102285.56
2022-10-18T07:31:14.193Z,102273.31
2022-10-18T07:33:43.077Z,102276.28
2022-10-18T07:36:11.712Z,102266.03
2022-10-18T07:38:42.416Z,102266.72
2022-10-18T07:41:12.035Z,102260.81
2022-10-18T07:43:47.590Z,102267.34
2022-10-18T07:46:16.067Z,102254.25
2022-10-18T07:48:43.596Z,102250.38
2022-10-18T07:51:11.170Z,102251.25
2022-10-18T07:53:40.481Z,102240.31
2022-10-18T07:56:16.497Z,102244.34
2022-10-18T07:58:45.451Z,102249.38
2022-10-18T08:01:14.750Z,102237.38
2022-10-18T08:03:45.781Z,102241.44
2022-10-18T08:06:16.348Z,102232.13
2022-10-18T08:08:44.761Z,102227.03
2022-10-18T08:11:15.423Z,102222.94
2022-10-18T08:13:44.431Z,102221.66
2022-10-18T08:16:17.637Z,102217.69
2022-10-18T08:18:45.076Z,102221.81
2022-10-18T08:21:15.263Z,102220.22
2022-10-18T08:23:43.424Z,102216.00
2022-10-18T08:26:13.017Z,102213.72
2022-10-18T08:28:49.105Z,102217.59
2022-10-18T08:31:21.587Z,102210.75
2022-10-18T08:33:48.816Z,102211.50
2022-10-18T08:36:17.197Z,102215.41
2022-10-18T08:38:46.467Z,102208.59
2022-10-18T08:41:48.096Z,102216.94
2022-10-18T08:44:27.943Z,102207.69
2022-10-18T08:47:07.323Z,102212.81
2022-10-18T08:49:46.646Z,102199.00
2022-10-18T08:52:24.040Z,102194.03
2022-10-18T08:55:02.133Z,102204.53
2022-10-18T08:57:31.255Z,102202.34
2022-10-18T09:00:04.717Z,102191.28
2022-10-18T09:02:35.597Z,102186.50
2022-10-18T09:05:21.536Z,102190.59
2022-10-18T09:08:15.584Z,102182.88
2022-10-18T09:10:49.941Z,102184.91
2022-10-18T09:13:32.829Z,102174.44
2022-10-18T09:16:02.780Z,102180.31
2022-10-18T09:18:33.022Z,102167.19
2022-10-18T09:21:26.704Z,102164.13
2022-10-18T09:24:02.743Z,102167.72
2022-10-18T09:26:34.213Z,102159.13
2022-10-18T09:29:24.550Z,102154.31
2022-10-18T09:32:19.452Z,102151.88
2022-10-18T09:34:53.619Z,102143.13
2022-10-18T09:37:21.735Z,102140.81
2022-10-18T09:39:50.794Z,102136.63
2022-10-18T09:42:31.884Z,102140.47
2022-10-18T09:45:27.686Z,102128.38
2022-10-18T09:48:19.795Z,102124.28
2022-10-18T09:51:05.588Z,102123.69
2022-10-18T09:53:43.376Z,102110.22
2022-10-18T09:56:29.088Z,102106.06
2022-10-18T09:58:56.722Z,102092.81
2022-10-18T10:01:27.736Z,102091.84
2022-10-18T10:03:55.675Z,102086.88
2022-10-18T10:06:28.068Z,102089.09
2022-10-18T10:09:05.666Z,102083.41
2022-10-18T10:11:40.308Z,102083.03
2022-10-18T10:14:23.774Z,102076.47
2022-10-18T10:16:59.875Z,102072.63
2022-10-18T10:19:34.103Z,102078.56
2022-10-18T10:22:08.208Z,102066.31
2022-10-18T10:24:46.610Z,102064.69
2022-10-18T10:27:32.504Z,102057.25
2022-10-18T10:30:07.063Z,102054.88
2022-10-18T10:32:47.673Z,102037.50
2022-10-18T10:35:53.813Z,102037.13
2022-10-18T10:38:30.091Z,102031.16
2022-10-18T10:40:58.312Z,102021.97
2022-10-18T10:43:38.085Z,102022.84
2022-10-18T10:46:15.889Z,102013.41
2022-10-18T10:49:27.509Z,102014.13
2022-10-18T10:51:53.677Z,102004.72
2022-10-18T10:54:35.925Z,102001.75
2022-10-18T10:57:11.363Z,102003.22
2022-10-18T10:59:51.654Z,102001.69
2022-10-18T11:02:29.401Z,101994.69
2022-10-18T11:04:58.432Z,101992.47
2022-10-18T11:07:41.938Z,101996.03
2022-10-18T11:10:17.295Z,101989.72
2022-10-18T11:12:50.382Z,101988.84
2022-10-18T11:15:36.570Z,101978.53
2022-10-18T11:18:14.759Z,101975.69
2022-10-18T11:20:57.046Z,101972.81
2022-10-18T11:23:35.816Z,101963.78
2022-10-18T11:26:12.387Z,101969.94
2022-10-18T11:28:49.359Z,101963.38
2022-10-18T11:31:44.153Z,101957.66
2022-10-18T11:34:43.051Z,101954.78
2022-10-18T11:37:42.527Z,101949.19
2022-10-18T11:40:32.366Z,101941.06
2022-10-18T11:43:03.514Z,101934.47
2022-10-18T11:45:57.890Z,101939.06
2022-10-18T11:48:58.370Z,101937.50
2022-10-18T11:52:06.698Z,101932.91
2022-10-18T11:54:43.897Z,101928.31
2022-10-18T11:57:17.280Z,101920.97
2022-10-18T11:59:55.539Z,101918.53
2022-10-18T12:02:44.509Z,101914.94
2022-10-18T12:05:30.261Z,101913.22
2022-10-18T12:08:07.401Z,101908.88
2022-10-18T12:10:46.188Z,101908.28
2022-10-18T12:13:37.174Z,101897.69
2022-10-18T12:16:05.659Z,101898.69
2022-10-18T12:18:34.354Z,101898.53
2022-10-18T12:21:08.148Z,101885.06
2022-10-18T12:23:45.550Z,101886.78
2022-10-18T12:26:13.902Z,101883.19
2022-10-18T12:28:51.792Z,101883.19
2022-10-18T12:31:25.219Z,101871.28
2022-10-18T12:33:58.944Z,101871.44
2022-10-18T12:36:44.537Z,101866.84
2022-10-18T12:39:43.999Z,101867.69
2022-10-18T12:42:30.128Z,101865.09
2022-10-18T12:45:32.448Z,101852.47
2022-10-18T12:48:20.111Z,101855.34
2022-10-18T12:51:00.987Z,101855.19
2022-10-18T12:53:29.600Z,101850.16
2022-10-18T12:56:28.470Z,101842.13
2022-10-18T12:59:14.448Z,101843.09
2022-10-18T13:01:50.987Z,101836.09
2022-10-18T13:04:27.562Z,101833.63
2022-10-18T13:07:45.321Z,101831.31
2022-10-18T13:10:13.901Z,101826.13
2022-10-18T13:12:53.548Z,101817.97
2022-10-18T13:15:40.583Z,101824.69
2022-10-18T13:18:29.534Z,101817.25
2022-10-18T13:21:20.229Z,101820.50
2022-10-18T13:24:26.180Z,101815.47
2022-10-18T13:27:04.227Z,101810.56
2022-10-18T13:29:56.549Z,101814.66
2022-10-18T13:32:39.154Z,101806.91
2022-10-18T13:35:52.329Z,101799.13
2022-10-18T13:38:38.677Z,101801.69
2022-10-18T13:41:16.158Z,101797.50
2022-10-18T13:43:52.764Z,101790.88
2022-10-18T13:46:22.191Z,101788.84
2022-10-18T13:48:54.560Z,101788.22
2022-10-18T13:52:16.948Z,101783.59
2022-10-18T13:55:14.903Z,101775.22
2022-10-18T13:57:57.689Z,101770.84
2022-10-18T14:00:35.907Z,101773.38
2022-10-18T14:03:51.832Z,101761.56
2022-10-18T14:06:18.990Z,101759.56
2022-10-18T14:09:26.331Z,101757.63
2022-10-18T14:12:31.192Z,101750.66
2022-10-18T14:15:21.508Z,101740.81
2022-10-18T14:17:53.664Z,101729.97
2022-10-18T14:20:40.113Z,101741.38
2022-10-18T14:23:22.120Z,101732.38
2022-10-18T14:25:49.896Z,101729.81
2022-10-18T14:28:27.408Z,101726.25
2022-10-18T14:31:04.571Z,101728.13
2022-10-18T14:33:39.761Z,101721.06
2022-10-18T14:36:15.362Z,101724.78
2022-10-18T14:38:58.292Z,101724.78
2022-10-18T14:41:27.672Z,101716.00
2022-10-18T14:44:16.212Z,101709.97
2022-10-18T14:46:58.694Z,101709.94
2022-10-18T14:49:26.001Z,101705.47
2022-10-18T14:51:55.971Z,101715.50
2022-10-18T14:54:32.152Z,101703.75
2022-10-18T14:57:01.425Z,101716.66
2022-10-18T14:59:31.913Z,101711.31
2022-10-18T15:02:02.596Z,101708.41
2022-10-18T15:04:33.288Z,101700.13
2022-10-18T15:07:03.597Z,101701.91
2022-10-18T15:09:33.241Z,101707.16
2022-10-18T15:12:04.427Z,101704.13
2022-10-18T15:14:32.612Z,101695.72
2022-10-18T15:17:03.849Z,101698.03
2022-10-18T15:19:36.782Z,101698.56
2022-10-18T15:22:38.506Z,101699.22
2022-10-18T15:25:08.158Z,101692.63
2022-10-18T15:27:38.498Z,101699.34
2022-10-18T15:30:33.901Z,101693.38
2022-10-18T15:33:03.711Z,101695.56
2022-10-18T15:35:36.100Z,101695.03
2022-10-18T15:38:27.079Z,101694.38
2022-10-18T15:40:57.773Z,101686.81
2022-10-18T15:43:28.469Z,101688.88
2022-10-18T15:46:00.309Z,101679.25
2022-10-18T15:48:35.094Z,101684.97
2022-10-18T15:51:07.878Z,101683.56
2022-10-18T15:53:45.140Z,101681.28
2022-10-18T15:56:27.147Z,101670.81
2022-10-18T15:58:57.013Z,101666.59
2022-10-18T16:01:27.136Z,101671.25
2022-10-18T16:06:26.886Z,101680.41
2022-10-18T16:08:55.660Z,101664.41
2022-10-18T16:11:25.820Z,101674.69
2022-10-18T16:13:57.806Z,101673.28
2022-10-18T16:16:29.496Z,101669.06
2022-10-18T16:18:57.353Z,101668.28
2022-10-18T16:21:26.912Z,101664.06
2022-10-18T16:23:54.929Z,101660.81
2022-10-18T16:26:23.102Z,101654.75
2022-10-18T16:28:51.196Z,101660.38
2022-10-18T16:31:21.774Z,101649.78
2022-10-18T16:33:50.193Z,101651.69
2022-10-18T16:36:22.302Z,101651.03
2022-10-18T16:38:51.043Z,101645.84
2022-10-18T16:41:18.859Z,101645.19
2022-10-18T16:43:48.117Z,101629.84
2022-10-18T16:46:20.983Z,101637.19
2022-10-18T16:48:49.477Z,101630.47
2022-10-18T16:51:17.636Z,101627.09
2022-10-18T16:53:45.377Z,101625.69
2022-10-18T16:56:18.296Z,101628.13
2022-10-18T16:58:46.962Z,101628.56
2022-10-18T17:01:16.468Z,101616.53
2022-10-18T17:03:46.054Z,101614.81
2022-10-18T17:06:23.854Z,101614.69
2022-10-18T17:08:52.938Z,101624.75
2022-10-18T17:11:23.634Z,101613.28
2022-10-18T17:13:52.450Z,101610.00
2022-10-18T17:19:04.194Z,101604.47
2022-10-18T17:21:33.468Z,101587.19
2022-10-18T17:24:06.038Z,101584.50
2022-10-18T17:26:34.135Z,101586.03
2022-10-18T17:29:03.988Z,101576.88
2022-10-18T17:31:32.334Z,101577.75
2022-10-18T17:34:01.962Z,101572.47
2022-10-18T17:36:31.330Z,101574.28
2022-10-18T17:38:58.912Z,101568.91
2022-10-18T17:41:26.813Z,101571.78
2022-10-18T17:43:54.224Z,101565.53
2022-10-18T17:46:21.575Z,101572.09
2022-10-18T17:48:48.851Z,101564.31
2022-10-18T17:51:17.739Z,101563.66
2022-10-18T17:53:45.689Z,101560.47
2022-10-18T17:56:16.433Z,101558.00
2022-10-18T17:58:45.632Z,101559.38
2022-10-18T18:01:16.752Z,101554.16
2022-10-18T18:03:45.352Z,101551.03
2022-10-18T18:06:18.527Z,101548.59
2022-10-18T18:08:46.262Z,101548.03
2022-10-18T18:11:13.802Z,101545.75
2022-10-18T18:13:41.411Z,101545.94
2022-10-18T18:16:20.309Z,101536.31
2022-10-18T18:18:51.282Z,101536.44
2022-10-18T18:21:22.147Z,101538.47
2022-10-18T18:23:50.055Z,101540.44
2022-10-18T18:26:19.240Z,101537.31
2022-10-18T18:28:46.972Z,101531.00
2022-10-18T18:31:24.695Z,101538.66
2022-10-18T18:33:55.151Z,101529.03
2022-10-18T18:36:24.401Z,101521.13
2022-10-18T18:38:56.821Z,101520.38
2022-10-18T18:41:26.004Z,101517.56
2022-10-18T18:43:57.181Z,101514.69
2022-10-18T18:46:26.577Z,101517.16
2022-10-18T18:48:54.184Z,101509.00
2022-10-18T18:51:22.722Z,101493.50
2022-10-18T18:53:50.950Z,101494.19
2022-10-18T18:58:53.764Z,101484.91
2022-10-18T19:01:32.191Z,101480.31
2022-10-18T19:04:00.119Z,101479.19
2022-10-18T19:06:29.546Z,101480.91
2022-10-18T19:09:01.397Z,101475.44
2022-10-18T19:11:32.620Z,101471.94
2022-10-18T19:14:00.479Z,101471.94
2022-10-18T19:16:38.987Z,101469.44
2022-10-18T19:19:17.489Z,101468.50
2022-10-18T19:21:51.584Z,101461.28
2022-10-18T19:24:20.476Z,101461.44
2022-10-18T19:27:02.632Z,101456.25
2022-10-18T19:29:31.952Z,101455.50
2022-10-18T19:32:02.519Z,101457.41
2022-10-18T19:34:31.467Z,101449.75
2022-10-18T19:36:59.016Z,101452.63
2022-10-18T19:39:31.692Z,101444.84
2022-10-18T19:42:03.139Z,101439.56
2022-10-18T19:44:32.307Z,101445.91
2022-10-18T19:47:00.022Z,101439.75
2022-10-18T19:49:28.823Z,101429.47
2022-10-18T19:51:56.794Z,101430.81
2022-10-18T19:54:24.798Z,101434.03
2022-10-18T19:56:52.150Z,101420.94
2022-10-18T19:59:21.315Z,101429.97
2022-10-18T20:01:49.872Z,101417.69
2022-10-18T20:04:17.507Z,101418.66
2022-10-18T20:06:46.662Z,101418.66
2022-10-18T20:09:19.333Z,101409.97
2022-10-18T20:11:47.898Z,101412.66
2022-10-18T20:14:16.999Z,101396.72
2022-10-18T20:16:46.877Z,101405.19
2022-10-18T20:19:14.462Z,101400.19
2022-10-18T20:21:41.870Z,101389.91
2022-10-18T20:24:10.567Z,101377.78
2022-10-18T20:26:39.649Z,101376.19
2022-10-18T20:29:08.245Z,101371.94
2022-10-18T20:31:41.442Z,101368.69
2022-10-18T20:34:11.697Z,101369.63
2022-10-18T20:36:39.734Z,101373.28
2022-10-18T20:39:07.055Z,101362.53
2022-10-18T20:41:41.085Z,101356.16
2022-10-18T20:44:13.400Z,101352.56
2022-10-18T20:46:43.478Z,101348.78
2022-10-18T20:49:13.683Z,101345.03
2022-10-18T20:51:42.922Z,101336.00
2022-10-18T20:54:10.962Z,101329.66
2022-10-18T20:56:39.225Z,101325.06
2022-10-18T20:59:09.901Z,101330.44
2022-10-18T21:01:39.114Z,101322.38
2022-10-18T21:04:09.099Z,101318.59
2022-10-18T21:06:42.112Z,101310.66
2022-10-18T21:09:15.325Z,101313.63
2022-10-18T21:11:45.044Z,101314.88
2022-10-18T21:14:15.142Z,101309.78
2022-10-18T21:16:43.657Z,101295.88
2022-10-18T21:19:14.608Z,101294.63
2022-10-18T21:21:46.980Z,101283.59
2022-10-18T21:24:14.614Z,101291.16
2022-10-18T21:27:06.556Z,101291.25
2022-10-18T21:29:59.063Z,101290.47
2022-10-18T21:33:09.191Z,101275.50
2022-10-18T21:36:16.942Z,101269.63
2022-10-18T21:38:56.121Z,101263.56
2022-10-18T21:42:12.270Z,101264.72
2022-10-18T22:20:30.030Z,101220.59
2022-10-18T22:23:01.475Z,101219.31
2022-10-18T22:25:57.625Z,101209.88
2022-10-18T22:29:06.672Z,101207.56
2022-10-18T22:31:39.742Z,101209.72
2022-10-18T22:34:27.692Z,101199.31
2022-10-18T22:37:02.097Z,101207.19
2022-10-18T22:39:30.608Z,101206.66
2022-10-18T22:42:05.218Z,101197.31
2022-10-18T22:44:36.980Z,101200.56
2022-10-18T22:47:04.237Z,101194.31
2022-10-18T22:49:31.734Z,101194.16
2022-10-18T22:51:58.939Z,101188.25
2022-10-18T22:54:26.602Z,101188.94
2022-10-18T22:56:54.218Z,101180.63
2022-10-18T22:59:21.909Z,101182.28
2022-10-18T23:01:51.391Z,101162.72
2022-10-18T23:04:30.483Z,101165.50
2022-10-18T23:06:58.797Z,101165.88
2022-10-18T23:09:26.681Z,101159.13
2022-10-18T23:11:53.960Z,101159.63
2022-10-18T23:14:22.421Z,101160.84
2022-10-18T23:16:50.107Z,101153.06
2022-10-18T23:19:20.851Z,101150.50
2022-10-18T23:21:48.678Z,101154.09
2022-10-18T23:24:16.047Z,101146.06
2022-10-18T23:26:43.530Z,101141.75
2022-10-18T23:29:13.992Z,101134.75
2022-10-18T23:31:41.589Z,101128.09
2022-10-18T23:34:09.991Z,101122.22
2022-10-18T23:36:37.195Z,101126.00
2022-10-18T23:39:04.793Z,101122.63
2022-10-18T23:41:33.385Z,101103.06
2022-10-18T23:44:02.433Z,101105.50
2022-10-18T23:46:30.200Z,101094.47
2022-10-18T23:48:57.500Z,101102.16
2022-10-18T23:51:25.095Z,101098.59
2022-10-18T23:53:52.923Z,101101.63
2022-10-18T23:56:20.419Z,101091.03
2022-10-18T23:58:47.696Z,101088.78
